Time;durP1;ratioP1;P1;durP2;ratioP2;P2;SDS_P1;SDS_P2;PMS_P1;PMS_P2;Temp;Humidity;BMP_temperature;BMP_pressure;BME280_temperature;BME280_humidity;BME280_pressure;Samples;Min_cycle;Max_cycle;Signal;HPM_P1;HPM_P2
2023/12/20 00:01:55;;;;;;;;;;;5.60;99.90;;;;;;5098564;28;20294;-35
2023/12/20 00:04:23;;;;;;;;;;;5.50;99.90;;;;;;5094292;28;19960;-35
2023/12/20 00:06:50;;;;;;;;;;;5.60;99.90;;;;;;5106427;28;19972;-35
2023/12/20 00:09:17;;;;;;;;;;;5.50;99.90;;;;;;5111304;28;19942;-35
2023/12/20 00:11:44;;;;;;;;;;;5.60;99.90;;;;;;5110240;28;20280;-37
2023/12/20 00:14:10;;;;;;;;;;;5.60;99.90;;;;;;5077860;28;19925;-35
2023/12/20 00:16:37;;;;;;;;;;;5.60;99.90;;;;;;5077531;28;19956;-34
2023/12/20 00:19:04;;;;;;;;;;;5.60;99.90;;;;;;5082914;28;19939;-35
2023/12/20 00:21:32;;;;;;;;;;;5.60;99.90;;;;;;5077751;28;19924;-35
2023/12/20 00:23:58;;;;;;;;;;;5.60;99.90;;;;;;5100776;28;19928;-35
2023/12/20 00:26:25;;;;;;;;;;;5.60;99.90;;;;;;5110722;28;19965;-34
2023/12/20 00:28:52;;;;;;;;;;;5.60;99.90;;;;;;5105220;28;19924;-36
2023/12/20 00:31:18;;;;;;;;;;;5.50;99.90;;;;;;5076517;28;19989;-36
2023/12/20 00:33:46;;;;;;;;;;;5.50;99.90;;;;;;5076612;28;19938;-36
2023/12/20 00:36:13;;;;;;;;;;;5.50;99.90;;;;;;5080876;28;19946;-35
2023/12/20 00:38:41;;;;;;;;;;;5.50;99.90;;;;;;5078909;28;20009;-35
2023/12/20 00:41:08;;;;;;;;;;;5.40;99.90;;;;;;5092119;28;20410;-35
2023/12/20 00:43:34;;;;;;;;;;;5.50;99.90;;;;;;5084434;28;19960;-34
2023/12/20 00:46:01;;;;;;;;;;;5.40;99.90;;;;;;5112589;28;19928;-34
2023/12/20 00:48:30;;;;;;;;;;;5.40;99.90;;;;;;5090099;28;19988;-35
2023/12/20 00:50:56;;;;;;;;;;;5.30;99.90;;;;;;5085716;28;20394;-35
2023/12/20 00:53:23;;;;;;;;;;;5.40;99.90;;;;;;5096371;28;19937;-34
2023/12/20 00:55:51;;;;;;;;;;;5.30;99.90;;;;;;5076660;28;19949;-35
2023/12/20 00:58:17;;;;;;;;;;;5.30;99.90;;;;;;5059853;28;20147;-34
2023/12/20 01:00:44;;;;;;;;;;;5.30;99.90;;;;;;5076477;28;19924;-34
2023/12/20 01:03:11;;;;;;;;;;;5.30;99.90;;;;;;5097623;28;20406;-36
2023/12/20 01:05:37;;;;;;;;;;;5.40;99.90;;;;;;5093126;28;19958;-33
2023/12/20 01:08:04;;;;;;;;;;;5.40;99.90;;;;;;5110186;28;20014;-33
2023/12/20 01:10:31;;;;;;;;;;;5.40;99.90;;;;;;5083533;28;19996;-34
2023/12/20 01:12:59;;;;;;;;;;;5.40;99.90;;;;;;5077949;28;19937;-35
2023/12/20 01:15:26;;;;;;;;;;;5.40;99.90;;;;;;5091781;28;19963;-35
2023/12/20 01:17:53;;;;;;;;;;;5.40;99.90;;;;;;5094044;28;20284;-34
2023/12/20 01:20:20;;;;;;;;;;;5.40;99.90;;;;;;5094387;28;19928;-34
2023/12/20 01:22:46;;;;;;;;;;;5.40;99.90;;;;;;5080159;28;19946;-34
2023/12/20 01:25:13;;;;;;;;;;;5.50;99.90;;;;;;5095966;28;19923;-35
2023/12/20 01:27:40;;;;;;;;;;;5.40;99.90;;;;;;5091652;28;19983;-37
2023/12/20 01:30:08;;;;;;;;;;;5.50;99.90;;;;;;5085835;28;19989;-35
2023/12/20 01:32:35;;;;;;;;;;;5.40;99.90;;;;;;5080075;28;19989;-34
2023/12/20 01:35:02;;;;;;;;;;;5.50;99.90;;;;;;5078568;28;19989;-35
2023/12/20 01:37:29;;;;;;;;;;;5.50;99.90;;;;;;5082840;28;19967;-35
2023/12/20 01:39:55;;;;;;;;;;;5.50;99.90;;;;;;5078545;28;19924;-34
2023/12/20 01:42:23;;;;;;;;;;;5.50;99.90;;;;;;5082526;28;20422;-35
2023/12/20 01:44:49;;;;;;;;;;;5.50;99.90;;;;;;5105935;28;19963;-35
2023/12/20 01:47:17;;;;;;;;;;;5.50;99.90;;;;;;5076860;28;19986;-36
2023/12/20 01:49:44;;;;;;;;;;;5.50;99.90;;;;;;5095902;28;19934;-37
2023/12/20 01:52:10;;;;;;;;;;;5.50;99.90;;;;;;5089849;28;19955;-35
2023/12/20 01:54:37;;;;;;;;;;;5.40;99.90;;;;;;5088542;28;20336;-36
2023/12/20 01:57:06;;;;;;;;;;;5.50;99.90;;;;;;5074834;28;19981;-34
2023/12/20 01:59:32;;;;;;;;;;;5.50;99.90;;;;;;5080363;28;19924;-36
2023/12/20 02:01:59;;;;;;;;;;;5.50;99.90;;;;;;5088475;28;20027;-35
2023/12/20 02:04:27;;;;;;;;;;;5.50;99.90;;;;;;5063510;28;19954;-34
2023/12/20 02:06:54;;;;;;;;;;;5.60;99.90;;;;;;5078979;28;19960;-35
2023/12/20 02:09:20;;;;;;;;;;;5.60;99.90;;;;;;5084616;28;19932;-35
2023/12/20 02:11:47;;;;;;;;;;;5.60;99.90;;;;;;5079687;28;20087;-35
2023/12/20 02:14:13;;;;;;;;;;;5.60;99.90;;;;;;5112872;28;20378;-34
2023/12/20 02:16:40;;;;;;;;;;;5.70;99.90;;;;;;5082145;28;19932;-35
2023/12/20 02:19:07;;;;;;;;;;;5.70;99.90;;;;;;5095539;28;19976;-36
2023/12/20 02:21:35;;;;;;;;;;;5.70;99.90;;;;;;5084545;28;19970;-35
2023/12/20 02:24:02;;;;;;;;;;;5.70;99.90;;;;;;5076025;28;20409;-35
2023/12/20 02:26:29;;;;;;;;;;;5.70;99.90;;;;;;5086372;28;19954;-35
2023/12/20 02:28:55;;;;;;;;;;;5.70;99.90;;;;;;5089800;28;20012;-35
2023/12/20 02:31:22;;;;;;;;;;;5.70;99.90;;;;;;5093114;28;20341;-35
2023/12/20 02:33:49;;;;;;;;;;;5.70;99.90;;;;;;5083009;28;20411;-35
2023/12/20 02:36:16;;;;;;;;;;;5.70;99.90;;;;;;5085451;28;19924;-36
2023/12/20 02:38:44;;;;;;;;;;;5.70;99.90;;;;;;5088397;28;19923;-35
2023/12/20 02:41:10;;;;;;;;;;;5.70;99.90;;;;;;5095849;28;19977;-36
2023/12/20 02:43:37;;;;;;;;;;;5.70;99.90;;;;;;5090234;28;19927;-34
2023/12/20 02:46:04;;;;;;;;;;;5.70;99.90;;;;;;5087260;28;19940;-35
2023/12/20 02:48:30;;;;;;;;;;;5.70;99.90;;;;;;5075497;28;20339;-35
2023/12/20 02:50:57;;;;;;;;;;;5.70;99.90;;;;;;5092295;28;19924;-36
2023/12/20 02:53:24;;;;;;;;;;;5.60;99.90;;;;;;5093438;28;20414;-35
2023/12/20 02:55:52;;;;;;;;;;;5.70;99.90;;;;;;5084385;28;19947;-34
2023/12/20 02:58:18;;;;;;;;;;;5.70;99.90;;;;;;5073936;28;19928;-34
2023/12/20 03:00:45;;;;;;;;;;;5.70;99.90;;;;;;5079182;28;19995;-34
2023/12/20 03:03:11;;;;;;;;;;;5.70;99.90;;;;;;5082284;28;20337;-34
2023/12/20 03:05:38;;;;;;;;;;;5.80;99.90;;;;;;5074232;28;19924;-34
2023/12/20 03:08:05;;;;;;;;;;;5.80;99.90;;;;;;5106274;28;20003;-35
2023/12/20 03:10:32;;;;;;;;;;;5.90;99.90;;;;;;5082225;28;19939;-35
2023/12/20 03:13:00;;;;;;;;;;;5.90;99.90;;;;;;5095765;28;19928;-34
2023/12/20 03:15:26;;;;;;;;;;;5.90;99.90;;;;;;5072622;28;19939;-37
2023/12/20 03:17:53;;;;;;;;;;;5.90;99.90;;;;;;5078535;28;19924;-34
2023/12/20 03:20:19;;;;;;;;;;;5.90;99.90;;;;;;5075076;28;20440;-36
2023/12/20 03:22:46;;;;;;;;;;;5.90;99.90;;;;;;5081340;28;19976;-35
2023/12/20 03:25:13;;;;;;;;;;;5.90;99.90;;;;;;5092450;28;19938;-35
2023/12/20 03:27:39;;;;;;;;;;;5.90;99.90;;;;;;5083895;28;19932;-35
2023/12/20 03:30:08;;;;;;;;;;;5.80;99.90;;;;;;5076832;28;19924;-35
2023/12/20 03:32:35;;;;;;;;;;;5.90;99.90;;;;;;5108302;28;20010;-34
2023/12/20 03:35:02;;;;;;;;;;;5.80;99.90;;;;;;5081588;28;20345;-37
2023/12/20 03:37:28;;;;;;;;;;;5.80;99.90;;;;;;5090374;28;19954;-35
2023/12/20 03:39:55;;;;;;;;;;;5.80;99.90;;;;;;5104587;28;19981;-34
2023/12/20 03:42:22;;;;;;;;;;;5.80;99.90;;;;;;5089463;28;19932;-35
2023/12/20 03:44:48;;;;;;;;;;;5.90;99.90;;;;;;5079512;28;19993;-34
2023/12/20 03:47:16;;;;;;;;;;;5.90;99.90;;;;;;5076907;28;20021;-35
2023/12/20 03:49:43;;;;;;;;;;;5.90;99.90;;;;;;5077853;28;19924;-36
2023/12/20 03:52:09;;;;;;;;;;;5.90;99.90;;;;;;5073546;28;19963;-37
2023/12/20 03:54:36;;;;;;;;;;;5.90;99.90;;;;;;5101941;28;20300;-35
2023/12/20 03:57:03;;;;;;;;;;;5.90;99.90;;;;;;5088714;28;20418;-35
2023/12/20 03:59:29;;;;;;;;;;;6.00;99.90;;;;;;5087266;28;19935;-36
2023/12/20 04:01:56;;;;;;;;;;;6.00;99.90;;;;;;5082584;28;20003;-34
2023/12/20 04:04:24;;;;;;;;;;;6.00;99.90;;;;;;5084369;28;20349;-33
2023/12/20 04:06:51;;;;;;;;;;;6.00;99.90;;;;;;5070631;28;20560;-36
2023/12/20 04:09:17;;;;;;;;;;;6.00;99.90;;;;;;5101970;28;19958;-34
2023/12/20 04:11:44;;;;;;;;;;;6.00;99.90;;;;;;5089591;28;19951;-36
2023/12/20 04:14:11;;;;;;;;;;;6.00;99.90;;;;;;5089962;28;19928;-34
2023/12/20 04:16:38;;;;;;;;;;;6.10;99.90;;;;;;5086375;28;19943;-35
2023/12/20 04:19:05;;;;;;;;;;;6.00;99.90;;;;;;5106863;28;20359;-35
2023/12/20 04:21:33;;;;;;;;;;;6.00;99.90;;;;;;5108460;28;20002;-36
2023/12/20 04:24:00;;;;;;;;;;;6.00;99.90;;;;;;5079550;28;19930;-35
2023/12/20 04:26:26;;;;;;;;;;;6.10;99.90;;;;;;5085521;28;19932;-35
2023/12/20 04:28:53;;;;;;;;;;;6.10;99.90;;;;;;5073646;28;19924;-34
2023/12/20 04:31:20;;;;;;;;;;;6.10;99.90;;;;;;5072473;28;19951;-34
2023/12/20 04:33:46;;;;;;;;;;;6.10;99.90;;;;;;5087417;28;19962;-35
2023/12/20 04:36:13;;;;;;;;;;;6.10;99.90;;;;;;5080355;28;19924;-34
2023/12/20 04:38:41;;;;;;;;;;;6.10;99.90;;;;;;5097460;28;19924;-34
2023/12/20 04:41:07;;;;;;;;;;;6.20;99.90;;;;;;5111443;28;20015;-34
2023/12/20 04:43:34;;;;;;;;;;;6.10;99.90;;;;;;5095646;28;20011;-34
2023/12/20 04:46:01;;;;;;;;;;;6.20;99.90;;;;;;5082589;28;19942;-34
2023/12/20 04:48:27;;;;;;;;;;;6.20;99.90;;;;;;5093517;28;20458;-35
2023/12/20 04:50:54;;;;;;;;;;;6.20;99.90;;;;;;5070866;28;19928;-35
2023/12/20 04:53:21;;;;;;;;;;;6.10;99.90;;;;;;5085293;28;20051;-34
2023/12/20 04:55:49;;;;;;;;;;;6.20;99.90;;;;;;5088046;28;19948;-34
2023/12/20 04:58:15;;;;;;;;;;;6.20;99.90;;;;;;5095810;28;19988;-35
2023/12/20 05:00:42;;;;;;;;;;;6.20;99.90;;;;;;5107600;28;19973;-34
2023/12/20 05:03:09;;;;;;;;;;;6.20;99.90;;;;;;5101934;28;20004;-35
2023/12/20 05:05:35;;;;;;;;;;;6.10;99.90;;;;;;5095941;28;20401;-35
2023/12/20 05:08:02;;;;;;;;;;;6.30;99.90;;;;;;5081095;28;19928;-35
2023/12/20 05:10:28;;;;;;;;;;;6.20;99.90;;;;;;5074727;28;19928;-34
2023/12/20 05:12:56;;;;;;;;;;;6.20;99.90;;;;;;5093517;28;20012;-34
2023/12/20 05:15:23;;;;;;;;;;;6.40;99.90;;;;;;5077575;28;19987;-35
2023/12/20 05:17:50;;;;;;;;;;;6.30;99.90;;;;;;5096400;28;19939;-35
2023/12/20 05:20:16;;;;;;;;;;;6.30;99.90;;;;;;5081251;28;19956;-34
2023/12/20 05:22:44;;;;;;;;;;;6.30;99.90;;;;;;5075061;28;20019;-35
2023/12/20 05:25:11;;;;;;;;;;;6.40;99.90;;;;;;5094993;28;20996;-34
2023/12/20 05:27:38;;;;;;;;;;;6.40;99.90;;;;;;5089120;28;19946;-34
2023/12/20 05:30:06;;;;;;;;;;;6.60;99.90;;;;;;5078992;28;19924;-34
2023/12/20 05:32:33;;;;;;;;;;;6.50;99.90;;;;;;5075887;28;20008;-34
2023/12/20 05:35:00;;;;;;;;;;;6.50;99.90;;;;;;5087803;28;19987;-34
2023/12/20 05:37:26;;;;;;;;;;;6.50;99.90;;;;;;5103215;28;19936;-36
2023/12/20 05:39:53;;;;;;;;;;;6.60;99.90;;;;;;5090086;28;19943;-35
2023/12/20 05:42:20;;;;;;;;;;;6.60;99.90;;;;;;5072965;28;19977;-35
2023/12/20 05:44:46;;;;;;;;;;;6.60;99.90;;;;;;5070077;28;19946;-35
2023/12/20 05:47:14;;;;;;;;;;;6.60;99.90;;;;;;5077835;28;19924;-35
2023/12/20 05:49:41;;;;;;;;;;;6.70;99.90;;;;;;5080971;28;19925;-34
2023/12/20 05:52:07;;;;;;;;;;;6.70;99.90;;;;;;5098170;28;19924;-34
2023/12/20 05:54:34;;;;;;;;;;;6.70;99.90;;;;;;5083026;28;19924;-35
2023/12/20 05:57:01;;;;;;;;;;;6.80;99.90;;;;;;5080303;28;20196;-35
2023/12/20 05:59:28;;;;;;;;;;;6.80;99.90;;;;;;5084331;28;19931;-34
2023/12/20 06:01:54;;;;;;;;;;;6.70;99.90;;;;;;5083072;28;19993;-34
2023/12/20 06:04:22;;;;;;;;;;;6.70;99.90;;;;;;5103435;28;19984;-36
2023/12/20 06:06:49;;;;;;;;;;;6.80;99.90;;;;;;5079275;28;20023;-35
2023/12/20 06:09:16;;;;;;;;;;;6.80;99.90;;;;;;5089697;28;19987;-35
2023/12/20 06:11:41;;;;;;;;;;;6.80;99.90;;;;;;5075443;28;19981;-36
2023/12/20 06:14:08;;;;;;;;;;;6.80;99.90;;;;;;5076537;28;20418;-35
2023/12/20 06:16:34;;;;;;;;;;;6.80;99.90;;;;;;5103612;28;19932;-35
2023/12/20 06:19:01;;;;;;;;;;;6.80;99.90;;;;;;5075576;28;20017;-35
2023/12/20 06:21:29;;;;;;;;;;;6.80;99.90;;;;;;5075173;28;20265;-34
2023/12/20 06:23:56;;;;;;;;;;;6.80;99.90;;;;;;5093451;28;20338;-36
2023/12/20 06:26:22;;;;;;;;;;;6.90;99.90;;;;;;5089630;28;19960;-37
2023/12/20 06:28:49;;;;;;;;;;;6.90;99.90;;;;;;5096242;28;19983;-35
2023/12/20 06:31:16;;;;;;;;;;;6.80;99.90;;;;;;5097602;28;19958;-36
2023/12/20 06:33:43;;;;;;;;;;;7.00;99.90;;;;;;5076357;28;20425;-33
2023/12/20 06:36:11;;;;;;;;;;;6.90;99.90;;;;;;5075170;28;19928;-35
2023/12/20 06:38:39;;;;;;;;;;;6.90;99.90;;;;;;5094463;28;19927;-36
2023/12/20 06:41:06;;;;;;;;;;;6.90;99.90;;;;;;5095457;28;20028;-36
2023/12/20 06:43:33;;;;;;;;;;;6.90;99.90;;;;;;5113940;28;19945;-34
2023/12/20 06:46:01;;;;;;;;;;;6.90;99.90;;;;;;5094058;28;19938;-35
2023/12/20 06:48:27;;;;;;;;;;;6.90;99.90;;;;;;5074961;28;19996;-36
2023/12/20 06:50:54;;;;;;;;;;;7.00;99.90;;;;;;5075460;28;19964;-35
2023/12/20 06:53:20;;;;;;;;;;;7.00;99.90;;;;;;5077158;28;19977;-35
2023/12/20 06:55:48;;;;;;;;;;;7.00;99.90;;;;;;5089417;28;19964;-34
2023/12/20 06:58:15;;;;;;;;;;;7.10;99.90;;;;;;5093159;28;19936;-35
2023/12/20 07:00:43;;;;;;;;;;;7.10;99.90;;;;;;5074920;28;19963;-35
2023/12/20 07:03:09;;;;;;;;;;;7.00;99.90;;;;;;5075247;28;19971;-34
2023/12/20 07:05:35;;;;;;;;;;;7.00;99.90;;;;;;5095399;28;20015;-34
2023/12/20 07:08:02;;;;;;;;;;;7.10;99.90;;;;;;5113169;28;19940;-34
2023/12/20 07:10:29;;;;;;;;;;;7.00;99.90;;;;;;5095260;28;19939;-34
2023/12/20 07:12:57;;;;;;;;;;;7.00;99.90;;;;;;5095073;28;19924;-34
2023/12/20 07:15:23;;;;;;;;;;;7.00;99.90;;;;;;5113069;28;19923;-34
2023/12/20 07:17:50;;;;;;;;;;;7.00;99.90;;;;;;5113150;28;19956;-35
2023/12/20 07:20:17;;;;;;;;;;;7.10;99.90;;;;;;5095023;28;20409;-34
2023/12/20 07:22:43;;;;;;;;;;;7.10;99.90;;;;;;5095145;28;20506;-35
2023/12/20 07:25:10;;;;;;;;;;;7.10;99.90;;;;;;5079418;28;19924;-34
2023/12/20 07:27:37;;;;;;;;;;;7.20;99.90;;;;;;5074876;28;20386;-36
2023/12/20 07:30:06;;;;;;;;;;;7.20;99.90;;;;;;5092890;28;20026;-34
2023/12/20 07:32:33;;;;;;;;;;;7.20;99.90;;;;;;5074675;28;19972;-35
2023/12/20 07:34:59;;;;;;;;;;;7.20;99.90;;;;;;5074706;28;20375;-35
2023/12/20 07:37:26;;;;;;;;;;;7.20;99.90;;;;;;5087584;28;19942;-35
2023/12/20 07:39:52;;;;;;;;;;;7.20;99.90;;;;;;5112692;28;19931;-35
2023/12/20 07:42:19;;;;;;;;;;;7.20;99.90;;;;;;5088861;28;19935;-35
2023/12/20 07:44:46;;;;;;;;;;;7.30;99.90;;;;;;5075024;28;20384;-35
2023/12/20 07:47:16;;;;;;;;;;;7.30;99.90;;;;;;5074759;28;20438;-34
2023/12/20 07:49:43;;;;;;;;;;;7.30;99.90;;;;;;5074544;28;20370;-36
2023/12/20 07:52:10;;;;;;;;;;;7.30;99.90;;;;;;5074539;28;19950;-37
2023/12/20 07:54:36;;;;;;;;;;;7.30;99.90;;;;;;5092718;28;19924;-34
2023/12/20 07:57:03;;;;;;;;;;;7.40;99.90;;;;;;5083183;28;19965;-36
2023/12/20 07:59:30;;;;;;;;;;;7.40;99.90;;;;;;5112884;28;19995;-36
2023/12/20 08:01:56;;;;;;;;;;;7.40;99.90;;;;;;5112894;28;19997;-35
2023/12/20 08:04:24;;;;;;;;;;;7.40;99.90;;;;;;5094878;28;19928;-37
2023/12/20 08:06:51;;;;;;;;;;;7.40;99.90;;;;;;5089285;28;19977;-36
2023/12/20 08:09:18;;;;;;;;;;;7.40;99.90;;;;;;5078638;28;20367;-36
2023/12/20 08:11:45;;;;;;;;;;;7.50;99.90;;;;;;5078627;28;20352;-38
2023/12/20 08:14:12;;;;;;;;;;;7.50;99.90;;;;;;5078255;28;20013;-35
2023/12/20 08:16:38;;;;;;;;;;;7.50;99.90;;;;;;5096443;28;19939;-35
2023/12/20 08:19:05;;;;;;;;;;;7.50;99.90;;;;;;5077966;28;19924;-35
2023/12/20 08:21:33;;;;;;;;;;;7.50;99.90;;;;;;5078193;28;19928;-36
2023/12/20 08:24:00;;;;;;;;;;;7.40;99.90;;;;;;5078306;28;19924;-35
2023/12/20 08:26:27;;;;;;;;;;;7.50;99.90;;;;;;5078165;28;19938;-35
2023/12/20 08:28:53;;;;;;;;;;;7.60;99.90;;;;;;5078201;28;20313;-35
2023/12/20 08:31:20;;;;;;;;;;;7.50;99.90;;;;;;5078088;28;19924;-35
2023/12/20 08:33:47;;;;;;;;;;;7.60;99.90;;;;;;5078571;28;20049;-35
2023/12/20 08:36:14;;;;;;;;;;;7.60;99.90;;;;;;5077831;28;19984;-35
2023/12/20 08:38:42;;;;;;;;;;;7.60;99.90;;;;;;5095885;28;20435;-35
2023/12/20 08:41:08;;;;;;;;;;;7.60;99.90;;;;;;5095959;28;19988;-34
2023/12/20 08:43:35;;;;;;;;;;;7.60;99.90;;;;;;5079039;28;20340;-34
2023/12/20 08:46:02;;;;;;;;;;;7.60;99.90;;;;;;5069047;28;20007;-35
2023/12/20 08:48:28;;;;;;;;;;;7.70;99.90;;;;;;5097659;28;20400;-35
2023/12/20 08:50:55;;;;;;;;;;;7.70;99.90;;;;;;5097982;28;19962;-35
2023/12/20 08:53:22;;;;;;;;;;;7.70;99.90;;;;;;5095306;28;19928;-35
2023/12/20 08:55:50;;;;;;;;;;;7.70;99.90;;;;;;5095450;28;19938;-35
2023/12/20 08:58:16;;;;;;;;;;;7.70;99.90;;;;;;5077334;28;19924;-34
2023/12/20 09:00:43;;;;;;;;;;;7.70;99.90;;;;;;5095400;28;20307;-35
2023/12/20 09:03:10;;;;;;;;;;;7.70;99.90;;;;;;5095449;28;19958;-35
2023/12/20 09:05:36;;;;;;;;;;;7.80;99.90;;;;;;5082843;28;19948;-33
2023/12/20 09:08:03;;;;;;;;;;;7.80;99.90;;;;;;5115774;28;19989;-34
2023/12/20 09:10:30;;;;;;;;;;;7.80;99.90;;;;;;5115776;28;19924;-35
2023/12/20 09:12:58;;;;;;;;;;;7.80;99.90;;;;;;5115493;28;19954;-36
2023/12/20 09:15:24;;;;;;;;;;;7.80;99.90;;;;;;5115374;28;19965;-34
2023/12/20 09:17:51;;;;;;;;;;;7.80;99.90;;;;;;5114759;28;19977;-35
2023/12/20 09:20:18;;;;;;;;;;;7.80;99.90;;;;;;5096334;28;19963;-36
2023/12/20 09:22:44;;;;;;;;;;;7.80;99.90;;;;;;5097782;28;19945;-35
2023/12/20 09:25:12;;;;;;;;;;;7.80;99.90;;;;;;5097528;28;20421;-35
2023/12/20 09:27:39;;;;;;;;;;;7.80;99.90;;;;;;5097391;28;19940;-36
2023/12/20 09:30:07;;;;;;;;;;;7.80;99.90;;;;;;5115225;28;19978;-36
2023/12/20 09:32:34;;;;;;;;;;;7.80;99.90;;;;;;5088292;28;19966;-34
2023/12/20 09:35:00;;;;;;;;;;;7.80;99.90;;;;;;5094616;28;19976;-34
2023/12/20 09:37:27;;;;;;;;;;;7.90;99.90;;;;;;5077022;28;20389;-35
2023/12/20 09:39:54;;;;;;;;;;;8.00;99.90;;;;;;5076904;28;19974;-34
2023/12/20 09:42:22;;;;;;;;;;;8.00;99.90;;;;;;5076203;28;19987;-34
2023/12/20 09:44:49;;;;;;;;;;;7.90;99.90;;;;;;5094643;28;19925;-35
2023/12/20 09:47:17;;;;;;;;;;;7.80;99.90;;;;;;5094542;28;20365;-35
2023/12/20 09:49:43;;;;;;;;;;;7.60;99.90;;;;;;5089577;28;19953;-34
2023/12/20 09:52:10;;;;;;;;;;;7.40;99.90;;;;;;5096933;28;19938;-34
2023/12/20 09:54:37;;;;;;;;;;;7.20;99.90;;;;;;5096665;28;19924;-37
2023/12/20 09:57:03;;;;;;;;;;;7.10;99.90;;;;;;5087699;28;20448;-36
2023/12/20 09:59:30;;;;;;;;;;;6.90;99.90;;;;;;5094050;28;20435;-34
2023/12/20 10:01:57;;;;;;;;;;;6.80;99.90;;;;;;5076299;28;19942;-34
2023/12/20 10:04:25;;;;;;;;;;;6.80;99.90;;;;;;5076285;28;19924;-34
2023/12/20 10:06:56;;;;;;;;;;;6.80;99.90;;;;;;5094325;28;19924;-36
2023/12/20 10:09:22;;;;;;;;;;;6.60;99.90;;;;;;5076042;28;20029;-35
2023/12/20 10:11:49;;;;;;;;;;;6.60;99.90;;;;;;5094119;28;19928;-35
2023/12/20 10:14:16;;;;;;;;;;;6.70;99.90;;;;;;5075846;28;19925;-34
2023/12/20 10:16:42;;;;;;;;;;;6.60;99.90;;;;;;5076036;28;19946;-35
2023/12/20 10:19:09;;;;;;;;;;;6.60;99.90;;;;;;5075470;28;19962;-35
2023/12/20 10:21:37;;;;;;;;;;;6.60;99.90;;;;;;5075776;28;19964;-35
2023/12/20 10:24:04;;;;;;;;;;;6.50;99.90;;;;;;5076008;28;19974;-36
2023/12/20 10:26:30;;;;;;;;;;;6.50;99.90;;;;;;5076000;28;19966;-35
2023/12/20 10:29:00;;;;;;;;;;;6.50;99.90;;;;;;5075645;28;20017;-33
2023/12/20 10:31:27;;;;;;;;;;;6.60;99.90;;;;;;5075512;28;19924;-34
2023/12/20 10:33:54;;;;;;;;;;;6.50;99.90;;;;;;5075170;28;19956;-34
2023/12/20 10:36:21;;;;;;;;;;;6.50;99.90;;;;;;5075616;28;20452;-34
2023/12/20 10:38:49;;;;;;;;;;;6.50;99.90;;;;;;5093586;28;19930;-35
2023/12/20 10:41:17;;;;;;;;;;;6.60;99.90;;;;;;5093539;28;19938;-35
2023/12/20 10:43:43;;;;;;;;;;;6.60;99.90;;;;;;5092651;28;20440;-36
2023/12/20 10:46:10;;;;;;;;;;;6.60;99.90;;;;;;5093408;28;19924;-35
2023/12/20 10:48:37;;;;;;;;;;;6.60;99.90;;;;;;5075531;28;19924;-35
2023/12/20 10:51:03;;;;;;;;;;;6.60;99.90;;;;;;5093336;28;19940;-36
2023/12/20 10:53:30;;;;;;;;;;;6.60;99.90;;;;;;5088954;28;19993;-35
2023/12/20 10:55:58;;;;;;;;;;;6.70;99.90;;;;;;5095671;28;19985;-35
2023/12/20 10:58:25;;;;;;;;;;;6.70;99.90;;;;;;5096020;28;20378;-35
2023/12/20 11:00:51;;;;;;;;;;;6.70;99.90;;;;;;5079464;28;20360;-35
2023/12/20 11:03:18;;;;;;;;;;;6.70;99.90;;;;;;5103818;28;20327;-36
2023/12/20 11:05:45;;;;;;;;;;;6.70;99.90;;;;;;5095535;28;20070;-35
2023/12/20 11:08:15;;;;;;;;;;;6.80;99.90;;;;;;5112929;28;20437;-35
2023/12/20 11:10:43;;;;;;;;;;;6.80;99.90;;;;;;5095409;28;19928;-37
2023/12/20 11:13:11;;;;;;;;;;;6.80;99.90;;;;;;5095042;28;19976;-36
2023/12/20 11:15:38;;;;;;;;;;;6.80;99.90;;;;;;5113133;28;20397;-35
2023/12/20 11:18:05;;;;;;;;;;;6.80;99.90;;;;;;5095088;28;19924;-35
2023/12/20 11:20:36;;;;;;;;;;;6.80;99.90;;;;;;5113208;28;20186;-37
2023/12/20 11:23:03;;;;;;;;;;;6.90;99.90;;;;;;5095031;28;19927;-34
2023/12/20 11:25:30;;;;;;;;;;;6.90;99.90;;;;;;5095371;28;19932;-34
2023/12/20 11:28:09;;;;;;;;;;;6.90;99.90;;;;;;5113022;28;19938;-36
2023/12/20 11:30:44;;;;;;;;;;;7.00;99.90;;;;;;5094890;28;19939;-34
2023/12/20 11:33:10;;;;;;;;;;;7.00;99.90;;;;;;5104374;28;19985;-37
2023/12/20 11:35:39;;;;;;;;;;;7.00;99.90;;;;;;5075014;28;19969;-35
2023/12/20 11:38:06;;;;;;;;;;;7.00;99.90;;;;;;5074831;28;19939;-35
2023/12/20 11:40:32;;;;;;;;;;;7.00;99.90;;;;;;5074522;28;19928;-34
2023/12/20 11:42:59;;;;;;;;;;;7.00;99.90;;;;;;5067002;28;20328;-35
2023/12/20 11:45:27;;;;;;;;;;;7.10;99.90;;;;;;5075037;28;19924;-34
2023/12/20 11:47:55;;;;;;;;;;;7.10;99.90;;;;;;5094260;28;19958;-34
2023/12/20 11:50:22;;;;;;;;;;;7.10;99.90;;;;;;5111605;28;19924;-35
2023/12/20 11:52:48;;;;;;;;;;;7.10;99.90;;;;;;5095172;28;19981;-35
2023/12/20 11:55:15;;;;;;;;;;;7.10;99.90;;;;;;5112895;28;19965;-35
2023/12/20 11:57:42;;;;;;;;;;;7.10;99.90;;;;;;5094815;28;20008;-34
2023/12/20 12:00:10;;;;;;;;;;;7.10;99.90;;;;;;5094366;28;19938;-34
2023/12/20 12:02:36;;;;;;;;;;;7.20;99.90;;;;;;5094745;28;20377;-36
2023/12/20 12:05:06;;;;;;;;;;;7.20;99.90;;;;;;5091180;28;19938;-35
2023/12/20 12:07:32;;;;;;;;;;;7.20;99.90;;;;;;5092463;28;19978;-35
2023/12/20 12:09:59;;;;;;;;;;;7.20;99.90;;;;;;5091539;28;19993;-36
2023/12/20 12:12:27;;;;;;;;;;;7.30;99.90;;;;;;5112537;28;19961;-34
2023/12/20 12:14:53;;;;;;;;;;;7.20;99.90;;;;;;5094449;28;20484;-35
2023/12/20 12:17:20;;;;;;;;;;;7.30;99.90;;;;;;5094479;28;20015;-35
2023/12/20 12:19:46;;;;;;;;;;;7.30;99.90;;;;;;5092585;28;19958;-35
2023/12/20 12:22:16;;;;;;;;;;;7.30;99.90;;;;;;5094673;28;19987;-36
2023/12/20 12:24:43;;;;;;;;;;;7.30;99.90;;;;;;5112479;28;20355;-35
2023/12/20 12:27:09;;;;;;;;;;;7.30;99.90;;;;;;5094311;28;20365;-37
2023/12/20 12:29:36;;;;;;;;;;;7.30;99.90;;;;;;5081163;28;20031;-35
2023/12/20 12:32:05;;;;;;;;;;;7.30;99.90;;;;;;5097714;28;20386;-35
2023/12/20 12:34:32;;;;;;;;;;;7.20;99.90;;;;;;5084010;28;20305;-36
2023/12/20 12:36:58;;;;;;;;;;;7.20;99.90;;;;;;5090962;28;20372;-35
2023/12/20 12:39:26;;;;;;;;;;;7.30;99.90;;;;;;5072571;28;19945;-34
2023/12/20 12:41:53;;;;;;;;;;;7.20;99.90;;;;;;5073522;28;20003;-35
2023/12/20 12:44:20;;;;;;;;;;;7.20;99.90;;;;;;5076044;28;19925;-35
2023/12/20 12:46:46;;;;;;;;;;;7.20;99.90;;;;;;5075095;28;20370;-36
2023/12/20 12:49:13;;;;;;;;;;;7.20;99.90;;;;;;5073955;28;19924;-36
2023/12/20 12:51:40;;;;;;;;;;;7.20;99.90;;;;;;5080077;28;19923;-34
2023/12/20 12:54:06;;;;;;;;;;;7.20;99.90;;;;;;5073483;28;20045;-34
2023/12/20 12:56:34;;;;;;;;;;;7.10;99.90;;;;;;5077014;28;19984;-35
2023/12/20 12:59:01;;;;;;;;;;;7.10;99.90;;;;;;5095703;28;19977;-36
2023/12/20 13:01:28;;;;;;;;;;;7.10;99.90;;;;;;5076948;28;19988;-35
2023/12/20 13:03:54;;;;;;;;;;;7.00;99.90;;;;;;5095580;28;20200;-37
2023/12/20 13:06:21;;;;;;;;;;;7.10;99.90;;;;;;5078798;28;19941;-35
2023/12/20 13:08:48;;;;;;;;;;;6.90;99.90;;;;;;5089859;28;19945;-34
2023/12/20 13:11:14;;;;;;;;;;;6.90;99.90;;;;;;5094900;28;19936;-34
2023/12/20 13:13:42;;;;;;;;;;;6.90;99.90;;;;;;5077377;28;20009;-33
2023/12/20 13:16:09;;;;;;;;;;;6.90;99.90;;;;;;5083581;28;19940;-34
2023/12/20 13:18:35;;;;;;;;;;;6.90;99.90;;;;;;5095646;28;20436;-34
2023/12/20 13:21:02;;;;;;;;;;;6.80;99.90;;;;;;5097138;28;19927;-35
2023/12/20 13:23:29;;;;;;;;;;;6.80;99.90;;;;;;5097524;28;20032;-34
2023/12/20 13:25:55;;;;;;;;;;;6.80;99.90;;;;;;5096956;28;20008;-35
2023/12/20 13:28:22;;;;;;;;;;;6.70;99.90;;;;;;5103921;28;20053;-34
2023/12/20 13:30:50;;;;;;;;;;;6.70;99.90;;;;;;5095036;28;19940;-34
2023/12/20 13:33:17;;;;;;;;;;;6.70;99.90;;;;;;5077269;28;20405;-34
2023/12/20 13:35:43;;;;;;;;;;;6.70;99.90;;;;;;5076788;28;19972;-34
2023/12/20 13:38:10;;;;;;;;;;;6.70;99.90;;;;;;5095211;28;20010;-34
2023/12/20 13:40:37;;;;;;;;;;;6.60;99.90;;;;;;5076859;28;19978;-33
2023/12/20 13:43:04;;;;;;;;;;;6.60;99.90;;;;;;5064478;28;20017;-33
2023/12/20 13:45:31;;;;;;;;;;;6.60;99.90;;;;;;5058188;28;19940;-36
2023/12/20 13:47:59;;;;;;;;;;;6.60;99.90;;;;;;5097137;28;19942;-34
2023/12/20 13:50:27;;;;;;;;;;;6.60;99.90;;;;;;5097198;28;19936;-34
2023/12/20 13:52:53;;;;;;;;;;;6.60;99.90;;;;;;5097080;28;19968;-35
2023/12/20 13:55:22;;;;;;;;;;;6.60;99.90;;;;;;5114636;28;20375;-34
2023/12/20 13:57:48;;;;;;;;;;;6.60;99.90;;;;;;5077788;28;19932;-36
2023/12/20 14:00:15;;;;;;;;;;;6.60;99.90;;;;;;5076669;28;19938;-34
2023/12/20 14:02:42;;;;;;;;;;;6.60;99.90;;;;;;5111195;28;19939;-34
2023/12/20 14:05:10;;;;;;;;;;;6.60;99.90;;;;;;5108403;28;19956;-34
2023/12/20 14:07:37;;;;;;;;;;;6.50;99.90;;;;;;5076395;28;19939;-35
2023/12/20 14:10:04;;;;;;;;;;;6.60;99.90;;;;;;5076302;28;19997;-34
2023/12/20 14:12:32;;;;;;;;;;;6.60;99.90;;;;;;5094136;28;20396;-35
2023/12/20 14:14:58;;;;;;;;;;;6.60;99.90;;;;;;5077021;28;20299;-35
2023/12/20 14:17:25;;;;;;;;;;;6.50;99.90;;;;;;5093994;28;19993;-36
2023/12/20 14:19:54;;;;;;;;;;;6.60;99.90;;;;;;5076194;28;20019;-34
2023/12/20 14:22:22;;;;;;;;;;;6.60;99.90;;;;;;5072947;28;20385;-35
2023/12/20 14:24:49;;;;;;;;;;;6.60;99.90;;;;;;5070300;28;19992;-34
2023/12/20 14:27:15;;;;;;;;;;;6.60;99.90;;;;;;5072430;28;19924;-35
2023/12/20 14:29:42;;;;;;;;;;;6.60;99.90;;;;;;5086592;28;20345;-36